Main page
Satellite images 15-day forecastsClimateMarine weather Cyclones Lightning AirportsFAQ Newsletter About
Weather : Europe Africa North America South America Asia Australia-Oceania Others
Languages Contact

Longyearbyen, Norway

Svalbard

latitude: 78-15N, longitude: 015-28E, elevation: 2 m


METAR: ENSB 181250Z 35013KT 9999 SCT026 M09/M14 Q0998 NOSIG RMK WIND 1400FT 33009KT
TAF: ENSB 1812/1912 35008KT 9999 BKN025 TEMPO 1900/1912 06012KT

Time: 14:22 (13:22 UTC)

Current weather observation

The report was made 32 minutes ago, at 12:50 UTC
Wind 13 kt from the North
Temperature -9°C
Humidity 67%
Pressure 998 hPa
Visibility 10 km or more
Scattered clouds at a height of 2600 ft

Change units

Forecast

Forecast valid from 18 at 12 UTC to 19 at 12 UTC
Wind 8 kt from the North
Visibility 10 km or more
Broken clouds at a height of 2500 ft
Temporary
from 19 at 00 UTC to 19 at 12 UTC
Wind 12 kt from the East/Northeast
The information on this site is subject to a disclaimer
Weather : Europe Africa North America South America Asia Australia-Oceania Others
Satellite images 15-day forecastsClimateMarine weather Cyclones Lightning AirportsFAQ Languages Contact Newsletter About